sensor_id;sensor_type;location;lat;lon;timestamp;temperature;humidity
18781;DHT22;9519;51.890;8.970;2023-03-15T00:03:47;3.20;99.90
18781;DHT22;9519;51.890;8.970;2023-03-15T00:08:49;3.20;99.90
18781;DHT22;9519;51.890;8.970;2023-03-15T00:13:51;2.80;99.30
18781;DHT22;9519;51.890;8.970;2023-03-15T00:18:55;2.90;99.90
18781;DHT22;9519;51.890;8.970;2023-03-15T00:23:57;2.90;99.90
18781;DHT22;9519;51.890;8.970;2023-03-15T00:34:02;3.10;99.90
18781;DHT22;9519;51.890;8.970;2023-03-15T00:39:04;3.00;99.90
18781;DHT22;9519;51.890;8.970;2023-03-15T00:44:06;2.90;99.90
18781;DHT22;9519;51.890;8.970;2023-03-15T00:49:10;2.90;98.20
18781;DHT22;9519;51.890;8.970;2023-03-15T01:04:18;3.10;98.50
18781;DHT22;9519;51.890;8.970;2023-03-15T01:09:20;3.20;99.90
18781;DHT22;9519;51.890;8.970;2023-03-15T01:14:23;3.20;99.90
18781;DHT22;9519;51.890;8.970;2023-03-15T01:19:26;3.00;99.90
18781;DHT22;9519;51.890;8.970;2023-03-15T01:34:35;3.20;99.90
18781;DHT22;9519;51.890;8.970;2023-03-15T01:44:51;3.20;99.00
18781;DHT22;9519;51.890;8.970;2023-03-15T01:50:01;3.20;99.20
18781;DHT22;9519;51.890;8.970;2023-03-15T01:55:09;3.50;99.90
18781;DHT22;9519;51.890;8.970;2023-03-15T02:00:18;3.00;99.80
18781;DHT22;9519;51.890;8.970;2023-03-15T02:05:26;3.10;99.90
18781;DHT22;9519;51.890;8.970;2023-03-15T02:10:35;2.80;99.90
18781;DHT22;9519;51.890;8.970;2023-03-15T02:20:52;2.70;99.90
18781;DHT22;9519;51.890;8.970;2023-03-15T02:26:08;2.70;99.90
18781;DHT22;9519;51.890;8.970;2023-03-15T02:31:17;2.70;99.90
18781;DHT22;9519;51.890;8.970;2023-03-15T02:36:21;2.60;99.90
18781;DHT22;9519;51.890;8.970;2023-03-15T02:41:28;2.50;99.90
18781;DHT22;9519;51.890;8.970;2023-03-15T02:46:35;2.60;99.90
18781;DHT22;9519;51.890;8.970;2023-03-15T02:51:38;2.80;99.90
18781;DHT22;9519;51.890;8.970;2023-03-15T02:56:40;2.30;99.90
18781;DHT22;9519;51.890;8.970;2023-03-15T03:01:44;2.40;99.90
18781;DHT22;9519;51.890;8.970;2023-03-15T03:06:46;2.40;99.90
18781;DHT22;9519;51.890;8.970;2023-03-15T03:16:52;2.40;99.90
18781;DHT22;9519;51.890;8.970;2023-03-15T03:21:54;2.20;99.90
18781;DHT22;9519;51.890;8.970;2023-03-15T03:26:56;2.50;99.90
18781;DHT22;9519;51.890;8.970;2023-03-15T03:32:00;2.30;99.90
18781;DHT22;9519;51.890;8.970;2023-03-15T03:47:08;2.40;99.90
18781;DHT22;9519;51.890;8.970;2023-03-15T03:52:12;2.20;99.90
18781;DHT22;9519;51.890;8.970;2023-03-15T03:57:14;2.30;99.90
18781;DHT22;9519;51.890;8.970;2023-03-15T04:02:18;2.40;99.90
18781;DHT22;9519;51.890;8.970;2023-03-15T04:07:20;2.00;99.90
18781;DHT22;9519;51.890;8.970;2023-03-15T04:17:26;2.20;99.90
18781;DHT22;9519;51.890;8.970;2023-03-15T04:22:27;2.30;99.90
18781;DHT22;9519;51.890;8.970;2023-03-15T04:27:30;2.20;99.90
18781;DHT22;9519;51.890;8.970;2023-03-15T04:32:33;2.30;99.90
18781;DHT22;9519;51.890;8.970;2023-03-15T04:37:35;2.30;99.90
18781;DHT22;9519;51.890;8.970;2023-03-15T04:42:37;2.40;99.90
18781;DHT22;9519;51.890;8.970;2023-03-15T04:47:41;2.60;99.90
18781;DHT22;9519;51.890;8.970;2023-03-15T04:52:43;1.10;99.90
18781;DHT22;9519;51.890;8.970;2023-03-15T05:02:49;2.30;99.90
18781;DHT22;9519;51.890;8.970;2023-03-15T05:07:54;2.30;99.90
18781;DHT22;9519;51.890;8.970;2023-03-15T05:17:59;2.50;99.90
18781;DHT22;9519;51.890;8.970;2023-03-15T05:28:04;2.30;99.90
18781;DHT22;9519;51.890;8.970;2023-03-15T05:33:08;2.30;99.90
18781;DHT22;9519;51.890;8.970;2023-03-15T05:38:10;2.10;99.90
18781;DHT22;9519;51.890;8.970;2023-03-15T05:48:17;4.10;99.90
18781;DHT22;9519;51.890;8.970;2023-03-15T05:58:22;2.30;99.90
18781;DHT22;9519;51.890;8.970;2023-03-15T06:03:26;2.90;99.90
18781;DHT22;9519;51.890;8.970;2023-03-15T06:08:28;2.20;99.90
18781;DHT22;9519;51.890;8.970;2023-03-15T06:13:30;2.40;99.90
18781;DHT22;9519;51.890;8.970;2023-03-15T06:18:34;2.20;99.90
18781;DHT22;9519;51.890;8.970;2023-03-15T06:23:36;2.30;99.90
18781;DHT22;9519;51.890;8.970;2023-03-15T06:28:38;2.30;99.90
18781;DHT22;9519;51.890;8.970;2023-03-15T06:33:41;2.30;99.90
18781;DHT22;9519;51.890;8.970;2023-03-15T06:38:45;2.50;99.90
18781;DHT22;9519;51.890;8.970;2023-03-15T06:48:51;2.30;99.90
18781;DHT22;9519;51.890;8.970;2023-03-15T06:58:55;2.60;99.90
18781;DHT22;9519;51.890;8.970;2023-03-15T07:03:59;2.50;99.90
18781;DHT22;9519;51.890;8.970;2023-03-15T07:09:02;2.70;99.90
18781;DHT22;9519;51.890;8.970;2023-03-15T07:19:08;2.70;99.90
18781;DHT22;9519;51.890;8.970;2023-03-15T07:24:10;2.80;99.90
18781;DHT22;9519;51.890;8.970;2023-03-15T07:29:12;2.70;99.90
18781;DHT22;9519;51.890;8.970;2023-03-15T07:34:16;2.70;99.90
18781;DHT22;9519;51.890;8.970;2023-03-15T07:39:18;2.50;99.90
18781;DHT22;9519;51.890;8.970;2023-03-15T07:49:24;3.00;99.90
18781;DHT22;9519;51.890;8.970;2023-03-15T07:59:31;2.80;99.90
18781;DHT22;9519;51.890;8.970;2023-03-15T08:04:34;2.90;99.90
18781;DHT22;9519;51.890;8.970;2023-03-15T08:09:36;2.60;99.90
18781;DHT22;9519;51.890;8.970;2023-03-15T08:14:39;3.20;99.90
18781;DHT22;9519;51.890;8.970;2023-03-15T08:19:42;3.10;99.90
18781;DHT22;9519;51.890;8.970;2023-03-15T08:24:44;3.40;99.90
18781;DHT22;9519;51.890;8.970;2023-03-15T08:29:48;3.10;99.90
18781;DHT22;9519;51.890;8.970;2023-03-15T08:34:53;3.40;99.90
18781;DHT22;9519;51.890;8.970;2023-03-15T08:39:55;3.60;99.90
18781;DHT22;9519;51.890;8.970;2023-03-15T08:45:00;4.00;99.90
18781;DHT22;9519;51.890;8.970;2023-03-15T08:50:06;3.80;99.90
18781;DHT22;9519;51.890;8.970;2023-03-15T09:00:14;4.00;99.90
18781;DHT22;9519;51.890;8.970;2023-03-15T09:05:20;4.00;99.90
18781;DHT22;9519;51.890;8.970;2023-03-15T09:10:23;4.80;99.90
18781;DHT22;9519;51.890;8.970;2023-03-15T09:20:29;4.00;99.90
18781;DHT22;9519;51.890;8.970;2023-03-15T09:30:35;4.50;99.90
18781;DHT22;9519;51.890;8.970;2023-03-15T09:35:40;4.50;99.90
18781;DHT22;9519;51.890;8.970;2023-03-15T09:40:43;4.30;99.90
18781;DHT22;9519;51.890;8.970;2023-03-15T09:45:58;4.40;99.90
18781;DHT22;9519;51.890;8.970;2023-03-15T09:51:13;4.60;99.90
18781;DHT22;9519;51.890;8.970;2023-03-15T09:56:22;4.60;99.90
18781;DHT22;9519;51.890;8.970;2023-03-15T10:01:30;4.70;99.90
18781;DHT22;9519;51.890;8.970;2023-03-15T10:06:36;4.70;99.90
18781;DHT22;9519;51.890;8.970;2023-03-15T10:11:52;5.20;99.90
18781;DHT22;9519;51.890;8.970;2023-03-15T10:17:06;4.80;99.90
18781;DHT22;9519;51.890;8.970;2023-03-15T10:22:20;5.40;99.90
18781;DHT22;9519;51.890;8.970;2023-03-15T10:27:32;5.00;99.90
18781;DHT22;9519;51.890;8.970;2023-03-15T10:32:41;5.50;99.90
18781;DHT22;9519;51.890;8.970;2023-03-15T10:37:49;5.60;99.90
18781;DHT22;9519;51.890;8.970;2023-03-15T10:42:51;5.30;99.90
18781;DHT22;9519;51.890;8.970;2023-03-15T10:47:53;5.40;99.90
18781;DHT22;9519;51.890;8.970;2023-03-15T10:52:58;5.50;99.90
18781;DHT22;9519;51.890;8.970;2023-03-15T10:58:18;5.70;99.90
18781;DHT22;9519;51.890;8.970;2023-03-15T11:03:24;5.80;99.90
18781;DHT22;9519;51.890;8.970;2023-03-15T11:08:39;6.10;99.90
18781;DHT22;9519;51.890;8.970;2023-03-15T11:13:54;6.30;99.90
18781;DHT22;9519;51.890;8.970;2023-03-15T11:19:02;5.80;99.90
18781;DHT22;9519;51.890;8.970;2023-03-15T11:24:21;6.10;99.90
18781;DHT22;9519;51.890;8.970;2023-03-15T11:29:27;5.90;99.90
18781;DHT22;9519;51.890;8.970;2023-03-15T11:34:38;6.10;99.90
18781;DHT22;9519;51.890;8.970;2023-03-15T11:39:51;6.30;99.90
18781;DHT22;9519;51.890;8.970;2023-03-15T11:45:01;6.40;99.90
18781;DHT22;9519;51.890;8.970;2023-03-15T11:50:10;6.50;99.90
18781;DHT22;9519;51.890;8.970;2023-03-15T11:55:18;6.70;99.90
18781;DHT22;9519;51.890;8.970;2023-03-15T12:00:48;6.80;98.80
18781;DHT22;9519;51.890;8.970;2023-03-15T12:06:00;6.70;98.10
18781;DHT22;9519;51.890;8.970;2023-03-15T12:11:38;6.70;98.10
18781;DHT22;9519;51.890;8.970;2023-03-15T12:16:44;6.70;97.20
18781;DHT22;9519;51.890;8.970;2023-03-15T12:21:49;6.60;97.00
18781;DHT22;9519;51.890;8.970;2023-03-15T12:27:00;6.90;99.90
18781;DHT22;9519;51.890;8.970;2023-03-15T12:32:07;6.60;96.40
18781;DHT22;9519;51.890;8.970;2023-03-15T12:37:17;7.10;99.90
18781;DHT22;9519;51.890;8.970;2023-03-15T12:48:23;7.20;95.70
18781;DHT22;9519;51.890;8.970;2023-03-15T12:53:35;7.30;94.90
18781;DHT22;9519;51.890;8.970;2023-03-15T12:58:50;7.10;92.80
18781;DHT22;9519;51.890;8.970;2023-03-15T13:03:55;6.90;99.90
18781;DHT22;9519;51.890;8.970;2023-03-15T13:09:02;6.80;93.20
18781;DHT22;9519;51.890;8.970;2023-03-15T13:14:26;6.90;92.40
18781;DHT22;9519;51.890;8.970;2023-03-15T13:19:40;6.90;92.50
18781;DHT22;9519;51.890;8.970;2023-03-15T13:24:53;6.80;91.90
18781;DHT22;9519;51.890;8.970;2023-03-15T13:30:22;6.80;92.00
18781;DHT22;9519;51.890;8.970;2023-03-15T13:35:28;6.80;91.50
18781;DHT22;9519;51.890;8.970;2023-03-15T13:40:30;6.50;99.90
18781;DHT22;9519;51.890;8.970;2023-03-15T13:45:36;6.40;99.90
18781;DHT22;9519;51.890;8.970;2023-03-15T13:50:38;6.50;90.00
18781;DHT22;9519;51.890;8.970;2023-03-15T13:55:41;6.50;90.80
18781;DHT22;9519;51.890;8.970;2023-03-15T14:00:58;6.50;90.50
18781;DHT22;9519;51.890;8.970;2023-03-15T14:06:03;6.40;90.70
18781;DHT22;9519;51.890;8.970;2023-03-15T14:11:06;5.90;99.90
18781;DHT22;9519;51.890;8.970;2023-03-15T14:16:15;5.70;99.90
18781;DHT22;9519;51.890;8.970;2023-03-15T14:21:27;5.70;91.80
18781;DHT22;9519;51.890;8.970;2023-03-15T14:26:32;5.70;93.00
18781;DHT22;9519;51.890;8.970;2023-03-15T14:31:41;6.10;94.00
18781;DHT22;9519;51.890;8.970;2023-03-15T14:36:48;6.60;94.00
18781;DHT22;9519;51.890;8.970;2023-03-15T14:41:53;7.10;94.00
18781;DHT22;9519;51.890;8.970;2023-03-15T14:46:57;7.50;93.60
18781;DHT22;9519;51.890;8.970;2023-03-15T14:52:02;8.00;93.00
18781;DHT22;9519;51.890;8.970;2023-03-15T14:57:07;8.20;91.50
18781;DHT22;9519;51.890;8.970;2023-03-15T15:02:15;8.50;92.30
18781;DHT22;9519;51.890;8.970;2023-03-15T15:07:18;8.70;91.70
18781;DHT22;9519;51.890;8.970;2023-03-15T15:12:21;9.10;92.40
18781;DHT22;9519;51.890;8.970;2023-03-15T15:17:24;9.50;91.20
18781;DHT22;9519;51.890;8.970;2023-03-15T15:22:26;9.60;90.60
18781;DHT22;9519;51.890;8.970;2023-03-15T15:27:28;9.60;90.20
18781;DHT22;9519;51.890;8.970;2023-03-15T15:32:31;9.50;89.90
18781;DHT22;9519;51.890;8.970;2023-03-15T15:37:34;9.40;90.00
18781;DHT22;9519;51.890;8.970;2023-03-15T15:42:36;9.50;90.40
18781;DHT22;9519;51.890;8.970;2023-03-15T15:47:40;9.60;90.20
18781;DHT22;9519;51.890;8.970;2023-03-15T15:52:43;9.60;90.20
18781;DHT22;9519;51.890;8.970;2023-03-15T15:57:49;9.50;88.60
18781;DHT22;9519;51.890;8.970;2023-03-15T16:02:55;9.40;88.90
18781;DHT22;9519;51.890;8.970;2023-03-15T16:08:00;9.40;89.50
18781;DHT22;9519;51.890;8.970;2023-03-15T16:13:05;9.30;88.20
18781;DHT22;9519;51.890;8.970;2023-03-15T16:18:12;9.20;88.10
18781;DHT22;9519;51.890;8.970;2023-03-15T16:23:18;8.90;87.50
18781;DHT22;9519;51.890;8.970;2023-03-15T16:28:23;8.60;86.80
18781;DHT22;9519;51.890;8.970;2023-03-15T16:33:26;8.20;87.30
18781;DHT22;9519;51.890;8.970;2023-03-15T16:38:30;8.00;87.20
18781;DHT22;9519;51.890;8.970;2023-03-15T16:43:32;7.80;88.00
18781;DHT22;9519;51.890;8.970;2023-03-15T16:48:35;7.70;88.20
18781;DHT22;9519;51.890;8.970;2023-03-15T16:53:38;7.50;88.40
18781;DHT22;9519;51.890;8.970;2023-03-15T16:58:46;7.40;88.60
18781;DHT22;9519;51.890;8.970;2023-03-15T17:03:53;7.30;88.40
18781;DHT22;9519;51.890;8.970;2023-03-15T17:08:59;7.20;88.30
18781;DHT22;9519;51.890;8.970;2023-03-15T17:14:05;6.80;99.90
18781;DHT22;9519;51.890;8.970;2023-03-15T17:19:11;6.90;88.20
18781;DHT22;9519;51.890;8.970;2023-03-15T17:24:14;6.80;88.20
18781;DHT22;9519;51.890;8.970;2023-03-15T17:29:16;6.70;88.40
18781;DHT22;9519;51.890;8.970;2023-03-15T17:34:19;6.60;88.20
18781;DHT22;9519;51.890;8.970;2023-03-15T17:39:22;6.50;88.20
18781;DHT22;9519;51.890;8.970;2023-03-15T17:44:24;6.40;88.70
18781;DHT22;9519;51.890;8.970;2023-03-15T17:49:27;6.30;89.00
18781;DHT22;9519;51.890;8.970;2023-03-15T17:54:29;6.20;90.10
18781;DHT22;9519;51.890;8.970;2023-03-15T17:59:32;6.00;90.00
18781;DHT22;9519;51.890;8.970;2023-03-15T18:04:35;5.80;90.10
18781;DHT22;9519;51.890;8.970;2023-03-15T18:09:39;5.60;90.30
18781;DHT22;9519;51.890;8.970;2023-03-15T18:14:41;5.50;99.90
18781;DHT22;9519;51.890;8.970;2023-03-15T18:19:44;5.30;90.40
18781;DHT22;9519;51.890;8.970;2023-03-15T18:24:47;4.90;99.90
18781;DHT22;9519;51.890;8.970;2023-03-15T18:29:49;5.00;90.90
18781;DHT22;9519;51.890;8.970;2023-03-15T18:34:53;5.00;90.60
18781;DHT22;9519;51.890;8.970;2023-03-15T18:39:56;4.90;90.60
18781;DHT22;9519;51.890;8.970;2023-03-15T18:44:58;4.80;99.90
18781;DHT22;9519;51.890;8.970;2023-03-15T18:50:01;4.30;99.90
18781;DHT22;9519;51.890;8.970;2023-03-15T18:55:06;4.60;99.90
18781;DHT22;9519;51.890;8.970;2023-03-15T19:00:10;4.10;99.90
18781;DHT22;9519;51.890;8.970;2023-03-15T19:05:16;4.30;99.90
18781;DHT22;9519;51.890;8.970;2023-03-15T19:10:20;3.90;99.90
18781;DHT22;9519;51.890;8.970;2023-03-15T19:15:23;4.00;99.90
18781;DHT22;9519;51.890;8.970;2023-03-15T19:20:26;4.00;99.90
18781;DHT22;9519;51.890;8.970;2023-03-15T19:25:29;3.90;99.90
18781;DHT22;9519;51.890;8.970;2023-03-15T19:30:31;3.80;99.90
18781;DHT22;9519;51.890;8.970;2023-03-15T19:35:35;3.80;99.90
18781;DHT22;9519;51.890;8.970;2023-03-15T19:40:37;3.40;99.90
18781;DHT22;9519;51.890;8.970;2023-03-15T19:50:43;3.20;92.80
18781;DHT22;9519;51.890;8.970;2023-03-15T19:55:47;3.30;99.90
18781;DHT22;9519;51.890;8.970;2023-03-15T20:00:49;3.40;95.20
18781;DHT22;9519;51.890;8.970;2023-03-15T20:05:55;2.90;92.10
18781;DHT22;9519;51.890;8.970;2023-03-15T20:11:00;2.80;99.90
18781;DHT22;9519;51.890;8.970;2023-03-15T20:16:04;2.80;92.30
18781;DHT22;9519;51.890;8.970;2023-03-15T20:21:08;2.90;99.90
18781;DHT22;9519;51.890;8.970;2023-03-15T20:26:12;2.70;99.90
18781;DHT22;9519;51.890;8.970;2023-03-15T20:31:17;2.80;99.90
18781;DHT22;9519;51.890;8.970;2023-03-15T20:36:21;2.10;99.90
18781;DHT22;9519;51.890;8.970;2023-03-15T20:46:25;2.30;99.90
18781;DHT22;9519;51.890;8.970;2023-03-15T20:51:30;2.50;99.90
18781;DHT22;9519;51.890;8.970;2023-03-15T20:56:32;2.40;99.90
18781;DHT22;9519;51.890;8.970;2023-03-15T21:01:34;2.10;99.90
18781;DHT22;9519;51.890;8.970;2023-03-15T21:06:40;2.20;99.90
18781;DHT22;9519;51.890;8.970;2023-03-15T21:21:48;1.90;99.90
18781;DHT22;9519;51.890;8.970;2023-03-15T21:31:54;1.80;99.90
18781;DHT22;9519;51.890;8.970;2023-03-15T21:36:57;2.10;99.90
18781;DHT22;9519;51.890;8.970;2023-03-15T21:52:07;1.40;94.10
18781;DHT22;9519;51.890;8.970;2023-03-15T21:57:09;1.70;99.30
18781;DHT22;9519;51.890;8.970;2023-03-15T22:02:12;1.70;94.30
18781;DHT22;9519;51.890;8.970;2023-03-15T22:07:17;1.50;99.90
18781;DHT22;9519;51.890;8.970;2023-03-15T22:12:19;1.40;99.90
18781;DHT22;9519;51.890;8.970;2023-03-15T22:17:22;1.50;99.90
18781;DHT22;9519;51.890;8.970;2023-03-15T22:22:26;1.60;99.90
18781;DHT22;9519;51.890;8.970;2023-03-15T22:32:30;1.30;99.90
18781;DHT22;9519;51.890;8.970;2023-03-15T22:37:34;1.20;99.90
18781;DHT22;9519;51.890;8.970;2023-03-15T22:42:36;1.20;99.90
18781;DHT22;9519;51.890;8.970;2023-03-15T22:52:43;1.10;99.90
18781;DHT22;9519;51.890;8.970;2023-03-15T23:02:48;1.30;99.90
18781;DHT22;9519;51.890;8.970;2023-03-15T23:07:51;1.20;95.50
18781;DHT22;9519;51.890;8.970;2023-03-15T23:12:53;1.00;99.90
18781;DHT22;9519;51.890;8.970;2023-03-15T23:17:55;1.10;99.90
18781;DHT22;9519;51.890;8.970;2023-03-15T23:22:59;1.30;99.90
18781;DHT22;9519;51.890;8.970;2023-03-15T23:28:00;1.40;99.90
18781;DHT22;9519;51.890;8.970;2023-03-15T23:33:03;1.30;99.90
18781;DHT22;9519;51.890;8.970;2023-03-15T23:38:08;1.20;99.90
18781;DHT22;9519;51.890;8.970;2023-03-15T23:43:13;1.20;99.90
18781;DHT22;9519;51.890;8.970;2023-03-15T23:53:18;1.10;99.90
18781;DHT22;9519;51.890;8.970;2023-03-15T23:58:21;1.00;96.30
